sensor_id;sensor_type;location;lat;lon;timestamp;temperature;humidity
1355;DHT22;671;48.972;9.276;2023-12-20T00:00:19;6.30;99.90
1355;DHT22;671;48.972;9.276;2023-12-20T00:02:45;6.30;99.90
1355;DHT22;671;48.972;9.276;2023-12-20T00:05:14;6.30;99.90
1355;DHT22;671;48.972;9.276;2023-12-20T00:07:40;6.30;99.90
1355;DHT22;671;48.972;9.276;2023-12-20T00:10:07;6.30;99.90
1355;DHT22;671;48.972;9.276;2023-12-20T00:12:33;6.30;99.90
1355;DHT22;671;48.972;9.276;2023-12-20T00:15:00;6.30;99.90
1355;DHT22;671;48.972;9.276;2023-12-20T00:17:26;6.30;99.90
1355;DHT22;671;48.972;9.276;2023-12-20T00:19:53;6.30;99.90
1355;DHT22;671;48.972;9.276;2023-12-20T00:22:19;6.30;99.90
1355;DHT22;671;48.972;9.276;2023-12-20T00:24:46;6.30;99.90
1355;DHT22;671;48.972;9.276;2023-12-20T00:27:12;6.20;99.90
1355;DHT22;671;48.972;9.276;2023-12-20T00:29:39;6.20;99.90
1355;DHT22;671;48.972;9.276;2023-12-20T00:32:06;6.10;99.90
1355;DHT22;671;48.972;9.276;2023-12-20T00:34:32;6.10;99.90
1355;DHT22;671;48.972;9.276;2023-12-20T00:36:59;6.00;99.90
1355;DHT22;671;48.972;9.276;2023-12-20T00:39:25;6.00;99.90
1355;DHT22;671;48.972;9.276;2023-12-20T00:41:51;6.00;99.90
1355;DHT22;671;48.972;9.276;2023-12-20T00:44:18;6.10;99.90
1355;DHT22;671;48.972;9.276;2023-12-20T00:46:44;6.10;99.90
1355;DHT22;671;48.972;9.276;2023-12-20T00:49:11;6.10;99.90
1355;DHT22;671;48.972;9.276;2023-12-20T00:51:37;6.10;99.90
1355;DHT22;671;48.972;9.276;2023-12-20T00:54:04;6.10;99.90
1355;DHT22;671;48.972;9.276;2023-12-20T00:56:30;6.10;99.90
1355;DHT22;671;48.972;9.276;2023-12-20T00:58:57;6.10;99.90
1355;DHT22;671;48.972;9.276;2023-12-20T01:01:23;6.10;99.90
1355;DHT22;671;48.972;9.276;2023-12-20T01:03:50;6.10;99.90
1355;DHT22;671;48.972;9.276;2023-12-20T01:06:17;6.10;99.90
1355;DHT22;671;48.972;9.276;2023-12-20T01:08:44;6.20;99.90
1355;DHT22;671;48.972;9.276;2023-12-20T01:11:11;6.10;99.90
1355;DHT22;671;48.972;9.276;2023-12-20T01:13:37;6.10;99.90
1355;DHT22;671;48.972;9.276;2023-12-20T01:16:03;6.10;99.90
1355;DHT22;671;48.972;9.276;2023-12-20T01:18:30;6.10;99.90
1355;DHT22;671;48.972;9.276;2023-12-20T01:21:02;6.00;99.90
1355;DHT22;671;48.972;9.276;2023-12-20T01:23:29;6.00;99.90
1355;DHT22;671;48.972;9.276;2023-12-20T01:25:55;6.00;99.90
1355;DHT22;671;48.972;9.276;2023-12-20T01:28:22;5.90;99.90
1355;DHT22;671;48.972;9.276;2023-12-20T01:30:48;5.90;99.90
1355;DHT22;671;48.972;9.276;2023-12-20T01:33:15;5.90;99.90
1355;DHT22;671;48.972;9.276;2023-12-20T01:35:41;5.90;99.90
1355;DHT22;671;48.972;9.276;2023-12-20T01:38:09;6.00;99.90
1355;DHT22;671;48.972;9.276;2023-12-20T01:40:35;6.00;99.90
1355;DHT22;671;48.972;9.276;2023-12-20T01:43:06;6.10;99.90
1355;DHT22;671;48.972;9.276;2023-12-20T01:45:33;6.10;99.90
1355;DHT22;671;48.972;9.276;2023-12-20T01:48:00;6.10;99.90
1355;DHT22;671;48.972;9.276;2023-12-20T01:50:30;6.10;99.90
1355;DHT22;671;48.972;9.276;2023-12-20T01:52:59;6.10;99.90
1355;DHT22;671;48.972;9.276;2023-12-20T01:55:31;6.10;99.90
1355;DHT22;671;48.972;9.276;2023-12-20T01:57:59;6.10;99.90
1355;DHT22;671;48.972;9.276;2023-12-20T02:00:27;6.00;99.90
1355;DHT22;671;48.972;9.276;2023-12-20T02:02:54;6.00;99.90
1355;DHT22;671;48.972;9.276;2023-12-20T02:05:24;6.00;99.90
1355;DHT22;671;48.972;9.276;2023-12-20T02:07:51;6.00;99.90
1355;DHT22;671;48.972;9.276;2023-12-20T02:10:18;6.00;99.90
1355;DHT22;671;48.972;9.276;2023-12-20T02:12:44;6.10;99.90
1355;DHT22;671;48.972;9.276;2023-12-20T02:15:11;6.10;99.90
1355;DHT22;671;48.972;9.276;2023-12-20T02:17:38;6.10;99.90
1355;DHT22;671;48.972;9.276;2023-12-20T02:20:06;6.10;99.90
1355;DHT22;671;48.972;9.276;2023-12-20T02:22:33;6.10;99.90
1355;DHT22;671;48.972;9.276;2023-12-20T02:24:59;6.20;99.90
1355;DHT22;671;48.972;9.276;2023-12-20T02:27:26;6.20;99.90
1355;DHT22;671;48.972;9.276;2023-12-20T02:29:53;6.30;99.90
1355;DHT22;671;48.972;9.276;2023-12-20T02:32:20;6.30;99.90
1355;DHT22;671;48.972;9.276;2023-12-20T02:34:48;6.30;99.90
1355;DHT22;671;48.972;9.276;2023-12-20T02:37:14;6.30;99.90
1355;DHT22;671;48.972;9.276;2023-12-20T02:39:41;6.30;99.90
1355;DHT22;671;48.972;9.276;2023-12-20T02:42:07;6.30;99.90
1355;DHT22;671;48.972;9.276;2023-12-20T02:44:34;6.30;99.90
1355;DHT22;671;48.972;9.276;2023-12-20T02:47:00;6.30;99.90
1355;DHT22;671;48.972;9.276;2023-12-20T02:49:27;6.40;99.90
1355;DHT22;671;48.972;9.276;2023-12-20T02:51:53;6.40;99.90
1355;DHT22;671;48.972;9.276;2023-12-20T02:54:20;6.40;99.90
1355;DHT22;671;48.972;9.276;2023-12-20T02:56:46;6.40;99.90
1355;DHT22;671;48.972;9.276;2023-12-20T02:59:13;6.40;99.90
1355;DHT22;671;48.972;9.276;2023-12-20T03:01:44;6.40;99.90
1355;DHT22;671;48.972;9.276;2023-12-20T03:04:11;6.30;99.90
1355;DHT22;671;48.972;9.276;2023-12-20T03:06:38;6.30;99.90
1355;DHT22;671;48.972;9.276;2023-12-20T03:09:05;6.30;99.90
1355;DHT22;671;48.972;9.276;2023-12-20T03:11:31;6.40;99.90
1355;DHT22;671;48.972;9.276;2023-12-20T03:13:58;6.40;99.90
1355;DHT22;671;48.972;9.276;2023-12-20T03:16:24;6.40;99.90
1355;DHT22;671;48.972;9.276;2023-12-20T03:18:51;6.40;99.90
1355;DHT22;671;48.972;9.276;2023-12-20T03:21:17;6.40;99.90
1355;DHT22;671;48.972;9.276;2023-12-20T03:23:44;6.40;99.90
1355;DHT22;671;48.972;9.276;2023-12-20T03:26:10;6.40;99.90
1355;DHT22;671;48.972;9.276;2023-12-20T03:28:37;6.40;99.90
1355;DHT22;671;48.972;9.276;2023-12-20T03:31:03;6.40;99.90
1355;DHT22;671;48.972;9.276;2023-12-20T03:33:30;6.40;99.90
1355;DHT22;671;48.972;9.276;2023-12-20T03:35:56;6.40;99.90
1355;DHT22;671;48.972;9.276;2023-12-20T03:38:23;6.40;99.90
1355;DHT22;671;48.972;9.276;2023-12-20T03:40:52;6.40;99.90
1355;DHT22;671;48.972;9.276;2023-12-20T03:43:18;6.40;99.90
1355;DHT22;671;48.972;9.276;2023-12-20T03:45:45;6.40;99.90
1355;DHT22;671;48.972;9.276;2023-12-20T03:48:12;6.40;99.90
1355;DHT22;671;48.972;9.276;2023-12-20T03:50:38;6.40;99.90
1355;DHT22;671;48.972;9.276;2023-12-20T03:53:05;6.40;99.90
1355;DHT22;671;48.972;9.276;2023-12-20T03:55:31;6.40;99.90
1355;DHT22;671;48.972;9.276;2023-12-20T03:57:57;6.40;99.90
1355;DHT22;671;48.972;9.276;2023-12-20T04:00:24;6.40;99.90
1355;DHT22;671;48.972;9.276;2023-12-20T04:02:50;6.40;99.90
1355;DHT22;671;48.972;9.276;2023-12-20T04:05:17;6.40;99.90
1355;DHT22;671;48.972;9.276;2023-12-20T04:07:44;6.40;99.90
1355;DHT22;671;48.972;9.276;2023-12-20T04:10:10;6.40;99.90
1355;DHT22;671;48.972;9.276;2023-12-20T04:12:37;6.30;99.90
1355;DHT22;671;48.972;9.276;2023-12-20T04:15:03;6.30;99.90
1355;DHT22;671;48.972;9.276;2023-12-20T04:17:35;6.30;99.90
1355;DHT22;671;48.972;9.276;2023-12-20T04:20:02;6.30;99.90
1355;DHT22;671;48.972;9.276;2023-12-20T04:22:29;6.30;99.90
1355;DHT22;671;48.972;9.276;2023-12-20T04:24:55;6.30;99.90
1355;DHT22;671;48.972;9.276;2023-12-20T04:27:21;6.30;99.90
1355;DHT22;671;48.972;9.276;2023-12-20T04:29:48;6.40;99.90
1355;DHT22;671;48.972;9.276;2023-12-20T04:32:14;6.40;99.90
1355;DHT22;671;48.972;9.276;2023-12-20T04:34:41;6.40;99.90
1355;DHT22;671;48.972;9.276;2023-12-20T04:37:07;6.30;99.90
1355;DHT22;671;48.972;9.276;2023-12-20T04:39:34;6.30;99.90
1355;DHT22;671;48.972;9.276;2023-12-20T04:42:00;6.40;99.90
1355;DHT22;671;48.972;9.276;2023-12-20T04:44:27;6.40;99.90
1355;DHT22;671;48.972;9.276;2023-12-20T04:46:53;6.40;99.90
1355;DHT22;671;48.972;9.276;2023-12-20T04:49:20;6.40;99.90
1355;DHT22;671;48.972;9.276;2023-12-20T04:51:46;6.40;99.90
1355;DHT22;671;48.972;9.276;2023-12-20T04:54:13;6.40;99.90
1355;DHT22;671;48.972;9.276;2023-12-20T04:56:40;6.40;99.90
1355;DHT22;671;48.972;9.276;2023-12-20T04:59:06;6.40;99.90
1355;DHT22;671;48.972;9.276;2023-12-20T05:01:32;6.40;99.90
1355;DHT22;671;48.972;9.276;2023-12-20T05:03:59;6.40;99.90
1355;DHT22;671;48.972;9.276;2023-12-20T05:06:25;6.40;99.90
1355;DHT22;671;48.972;9.276;2023-12-20T05:08:52;6.40;99.90
1355;DHT22;671;48.972;9.276;2023-12-20T05:11:18;6.40;99.90
1355;DHT22;671;48.972;9.276;2023-12-20T05:13:45;6.40;99.90
1355;DHT22;671;48.972;9.276;2023-12-20T05:16:11;6.40;99.90
1355;DHT22;671;48.972;9.276;2023-12-20T05:18:40;6.40;99.90
1355;DHT22;671;48.972;9.276;2023-12-20T05:21:06;6.50;99.90
1355;DHT22;671;48.972;9.276;2023-12-20T05:23:33;6.50;99.90
1355;DHT22;671;48.972;9.276;2023-12-20T05:25:59;6.50;99.90
1355;DHT22;671;48.972;9.276;2023-12-20T05:28:26;6.50;99.90
1355;DHT22;671;48.972;9.276;2023-12-20T05:30:53;6.40;99.90
1355;DHT22;671;48.972;9.276;2023-12-20T05:33:20;6.50;99.90
1355;DHT22;671;48.972;9.276;2023-12-20T05:35:46;6.50;99.90
1355;DHT22;671;48.972;9.276;2023-12-20T05:38:12;6.50;99.90
1355;DHT22;671;48.972;9.276;2023-12-20T05:40:39;6.50;99.90
1355;DHT22;671;48.972;9.276;2023-12-20T05:43:05;6.50;99.90
1355;DHT22;671;48.972;9.276;2023-12-20T05:45:32;6.50;99.90
1355;DHT22;671;48.972;9.276;2023-12-20T05:47:58;6.50;99.90
1355;DHT22;671;48.972;9.276;2023-12-20T05:50:25;6.50;99.90
1355;DHT22;671;48.972;9.276;2023-12-20T05:52:51;6.50;99.90
1355;DHT22;671;48.972;9.276;2023-12-20T05:55:18;6.50;99.90
1355;DHT22;671;48.972;9.276;2023-12-20T05:57:44;6.50;99.90
1355;DHT22;671;48.972;9.276;2023-12-20T06:00:11;6.50;99.90
1355;DHT22;671;48.972;9.276;2023-12-20T06:02:38;6.50;99.90
1355;DHT22;671;48.972;9.276;2023-12-20T06:05:05;6.50;99.90
1355;DHT22;671;48.972;9.276;2023-12-20T06:07:32;6.60;99.90
1355;DHT22;671;48.972;9.276;2023-12-20T06:09:58;6.60;99.90
1355;DHT22;671;48.972;9.276;2023-12-20T06:12:25;6.60;99.90
1355;DHT22;671;48.972;9.276;2023-12-20T06:14:53;6.60;99.90
1355;DHT22;671;48.972;9.276;2023-12-20T06:17:19;6.60;99.90
1355;DHT22;671;48.972;9.276;2023-12-20T06:19:46;6.60;99.90
1355;DHT22;671;48.972;9.276;2023-12-20T06:22:15;6.70;99.90
1355;DHT22;671;48.972;9.276;2023-12-20T06:24:41;6.70;99.90
1355;DHT22;671;48.972;9.276;2023-12-20T06:27:08;6.60;99.90
1355;DHT22;671;48.972;9.276;2023-12-20T06:29:34;6.60;99.90
1355;DHT22;671;48.972;9.276;2023-12-20T06:32:01;6.60;99.90
1355;DHT22;671;48.972;9.276;2023-12-20T06:34:27;6.60;99.90
1355;DHT22;671;48.972;9.276;2023-12-20T06:36:54;6.60;99.90
1355;DHT22;671;48.972;9.276;2023-12-20T06:39:20;6.60;99.90
1355;DHT22;671;48.972;9.276;2023-12-20T06:41:47;6.60;99.90
1355;DHT22;671;48.972;9.276;2023-12-20T06:44:13;6.60;99.90
1355;DHT22;671;48.972;9.276;2023-12-20T06:46:40;6.60;99.90
1355;DHT22;671;48.972;9.276;2023-12-20T06:49:06;6.60;99.90
1355;DHT22;671;48.972;9.276;2023-12-20T06:51:33;6.60;99.90
1355;DHT22;671;48.972;9.276;2023-12-20T06:53:59;6.60;99.90
1355;DHT22;671;48.972;9.276;2023-12-20T06:56:26;6.60;99.90
1355;DHT22;671;48.972;9.276;2023-12-20T06:58:52;6.70;99.90
1355;DHT22;671;48.972;9.276;2023-12-20T07:01:19;6.70;99.90
1355;DHT22;671;48.972;9.276;2023-12-20T07:03:45;6.70;99.90
1355;DHT22;671;48.972;9.276;2023-12-20T07:06:12;6.70;99.90
1355;DHT22;671;48.972;9.276;2023-12-20T07:08:40;6.70;99.90
1355;DHT22;671;48.972;9.276;2023-12-20T07:11:06;6.70;99.90
1355;DHT22;671;48.972;9.276;2023-12-20T07:13:33;6.70;99.90
1355;DHT22;671;48.972;9.276;2023-12-20T07:16:00;6.70;99.90
1355;DHT22;671;48.972;9.276;2023-12-20T07:18:26;6.70;99.90
1355;DHT22;671;48.972;9.276;2023-12-20T07:20:52;6.70;99.90
1355;DHT22;671;48.972;9.276;2023-12-20T07:23:20;6.80;99.90
1355;DHT22;671;48.972;9.276;2023-12-20T07:25:47;6.80;99.90
1355;DHT22;671;48.972;9.276;2023-12-20T07:28:14;6.80;99.90
1355;DHT22;671;48.972;9.276;2023-12-20T07:30:40;6.80;99.90
1355;DHT22;671;48.972;9.276;2023-12-20T07:33:07;6.80;99.90
1355;DHT22;671;48.972;9.276;2023-12-20T07:35:35;6.80;99.90
1355;DHT22;671;48.972;9.276;2023-12-20T07:38:01;6.80;99.90
1355;DHT22;671;48.972;9.276;2023-12-20T07:40:28;6.80;99.90
1355;DHT22;671;48.972;9.276;2023-12-20T07:42:55;6.80;99.90
1355;DHT22;671;48.972;9.276;2023-12-20T07:45:21;6.80;99.90
1355;DHT22;671;48.972;9.276;2023-12-20T07:47:48;6.70;99.90
1355;DHT22;671;48.972;9.276;2023-12-20T07:50:15;6.70;99.90
1355;DHT22;671;48.972;9.276;2023-12-20T07:52:42;6.60;99.90
1355;DHT22;671;48.972;9.276;2023-12-20T07:55:08;6.60;99.90
1355;DHT22;671;48.972;9.276;2023-12-20T07:57:35;6.60;99.90
1355;DHT22;671;48.972;9.276;2023-12-20T08:00:01;6.60;99.90
1355;DHT22;671;48.972;9.276;2023-12-20T08:02:29;6.50;99.90
1355;DHT22;671;48.972;9.276;2023-12-20T08:04:56;6.50;99.90
1355;DHT22;671;48.972;9.276;2023-12-20T08:07:22;6.50;99.90
1355;DHT22;671;48.972;9.276;2023-12-20T08:09:50;6.50;99.90
1355;DHT22;671;48.972;9.276;2023-12-20T08:12:17;6.50;99.90
1355;DHT22;671;48.972;9.276;2023-12-20T08:14:44;6.50;99.90
1355;DHT22;671;48.972;9.276;2023-12-20T08:17:10;6.40;99.90
1355;DHT22;671;48.972;9.276;2023-12-20T08:19:37;6.40;99.90
1355;DHT22;671;48.972;9.276;2023-12-20T08:22:03;6.40;99.90
1355;DHT22;671;48.972;9.276;2023-12-20T08:24:30;6.40;99.90
1355;DHT22;671;48.972;9.276;2023-12-20T08:26:56;6.50;99.90
1355;DHT22;671;48.972;9.276;2023-12-20T08:29:23;6.50;99.90
1355;DHT22;671;48.972;9.276;2023-12-20T08:31:53;6.40;99.90
1355;DHT22;671;48.972;9.276;2023-12-20T08:34:20;6.40;99.90
1355;DHT22;671;48.972;9.276;2023-12-20T08:36:46;6.40;99.90
1355;DHT22;671;48.972;9.276;2023-12-20T08:39:13;6.30;99.90
1355;DHT22;671;48.972;9.276;2023-12-20T08:41:39;6.30;99.90
1355;DHT22;671;48.972;9.276;2023-12-20T08:44:06;6.20;99.90
1355;DHT22;671;48.972;9.276;2023-12-20T08:46:32;6.30;99.90
1355;DHT22;671;48.972;9.276;2023-12-20T08:48:59;6.20;99.90
1355;DHT22;671;48.972;9.276;2023-12-20T08:51:26;6.20;99.90
1355;DHT22;671;48.972;9.276;2023-12-20T08:53:54;6.30;99.90
1355;DHT22;671;48.972;9.276;2023-12-20T08:56:20;6.20;99.90
1355;DHT22;671;48.972;9.276;2023-12-20T08:58:47;6.30;99.90
1355;DHT22;671;48.972;9.276;2023-12-20T09:01:14;6.30;99.90
1355;DHT22;671;48.972;9.276;2023-12-20T09:03:40;6.30;99.90
1355;DHT22;671;48.972;9.276;2023-12-20T09:06:07;6.40;99.90
1355;DHT22;671;48.972;9.276;2023-12-20T09:08:33;6.40;99.90
1355;DHT22;671;48.972;9.276;2023-12-20T09:11:00;6.50;99.90
1355;DHT22;671;48.972;9.276;2023-12-20T09:13:27;6.50;99.90
1355;DHT22;671;48.972;9.276;2023-12-20T09:15:57;6.50;99.90
1355;DHT22;671;48.972;9.276;2023-12-20T09:18:24;6.50;99.90
1355;DHT22;671;48.972;9.276;2023-12-20T09:20:50;6.50;99.90
1355;DHT22;671;48.972;9.276;2023-12-20T09:23:17;6.50;99.90
1355;DHT22;671;48.972;9.276;2023-12-20T09:25:44;6.50;99.90
1355;DHT22;671;48.972;9.276;2023-12-20T09:28:11;6.50;99.90
1355;DHT22;671;48.972;9.276;2023-12-20T09:30:37;6.50;99.90
1355;DHT22;671;48.972;9.276;2023-12-20T09:33:06;6.60;99.90
1355;DHT22;671;48.972;9.276;2023-12-20T09:35:33;6.60;99.90
1355;DHT22;671;48.972;9.276;2023-12-20T09:38:00;6.60;99.90
1355;DHT22;671;48.972;9.276;2023-12-20T09:40:26;6.70;99.90
1355;DHT22;671;48.972;9.276;2023-12-20T09:42:57;6.70;99.90
1355;DHT22;671;48.972;9.276;2023-12-20T09:45:24;6.80;99.90
1355;DHT22;671;48.972;9.276;2023-12-20T09:47:53;6.80;99.90
1355;DHT22;671;48.972;9.276;2023-12-20T09:50:20;6.90;99.90
1355;DHT22;671;48.972;9.276;2023-12-20T09:52:51;7.00;99.90
1355;DHT22;671;48.972;9.276;2023-12-20T09:55:19;7.10;99.90
1355;DHT22;671;48.972;9.276;2023-12-20T09:57:47;7.20;99.90
1355;DHT22;671;48.972;9.276;2023-12-20T10:00:14;7.30;99.90
1355;DHT22;671;48.972;9.276;2023-12-20T10:02:57;7.30;99.90
1355;DHT22;671;48.972;9.276;2023-12-20T10:05:28;7.30;99.90
1355;DHT22;671;48.972;9.276;2023-12-20T10:07:55;7.40;99.90
1355;DHT22;671;48.972;9.276;2023-12-20T10:10:22;7.50;99.90
1355;DHT22;671;48.972;9.276;2023-12-20T10:13:06;7.50;99.90
1355;DHT22;671;48.972;9.276;2023-12-20T10:15:33;7.60;99.90
1355;DHT22;671;48.972;9.276;2023-12-20T10:18:00;7.60;99.90
1355;DHT22;671;48.972;9.276;2023-12-20T10:20:28;7.60;99.90
1355;DHT22;671;48.972;9.276;2023-12-20T10:22:56;7.70;99.90
1355;DHT22;671;48.972;9.276;2023-12-20T10:25:24;7.80;99.90
1355;DHT22;671;48.972;9.276;2023-12-20T10:28:11;7.80;99.90
1355;DHT22;671;48.972;9.276;2023-12-20T10:30:39;7.60;99.90
1355;DHT22;671;48.972;9.276;2023-12-20T10:33:07;7.50;99.90
1355;DHT22;671;48.972;9.276;2023-12-20T10:35:38;7.40;99.90
1355;DHT22;671;48.972;9.276;2023-12-20T10:38:05;7.40;99.90
1355;DHT22;671;48.972;9.276;2023-12-20T10:40:35;7.30;99.90
1355;DHT22;671;48.972;9.276;2023-12-20T10:43:03;7.20;99.90
1355;DHT22;671;48.972;9.276;2023-12-20T10:45:30;7.30;99.90
1355;DHT22;671;48.972;9.276;2023-12-20T10:47:57;7.40;99.90
1355;DHT22;671;48.972;9.276;2023-12-20T10:50:27;7.50;99.90
1355;DHT22;671;48.972;9.276;2023-12-20T10:52:55;7.60;99.90
1355;DHT22;671;48.972;9.276;2023-12-20T10:55:23;7.70;99.90
1355;DHT22;671;48.972;9.276;2023-12-20T10:57:51;7.80;99.90
1355;DHT22;671;48.972;9.276;2023-12-20T11:00:18;8.00;99.90
1355;DHT22;671;48.972;9.276;2023-12-20T11:02:46;8.30;99.90
1355;DHT22;671;48.972;9.276;2023-12-20T11:08:14;8.50;99.90
1355;DHT22;671;48.972;9.276;2023-12-20T11:10:51;8.50;99.90
1355;DHT22;671;48.972;9.276;2023-12-20T11:13:23;8.40;99.90
1355;DHT22;671;48.972;9.276;2023-12-20T11:15:53;8.30;99.90
1355;DHT22;671;48.972;9.276;2023-12-20T11:18:20;8.30;99.90
1355;DHT22;671;48.972;9.276;2023-12-20T11:20:54;8.30;99.90
1355;DHT22;671;48.972;9.276;2023-12-20T11:23:21;8.20;99.90
1355;DHT22;671;48.972;9.276;2023-12-20T11:25:56;8.20;99.90
1355;DHT22;671;48.972;9.276;2023-12-20T11:28:26;8.20;99.90
1355;DHT22;671;48.972;9.276;2023-12-20T11:30:54;8.10;99.90
1355;DHT22;671;48.972;9.276;2023-12-20T11:33:26;8.10;99.90
1355;DHT22;671;48.972;9.276;2023-12-20T11:35:56;8.00;99.90
1355;DHT22;671;48.972;9.276;2023-12-20T11:38:23;8.00;99.90
1355;DHT22;671;48.972;9.276;2023-12-20T11:40:50;8.00;99.90
1355;DHT22;671;48.972;9.276;2023-12-20T11:43:39;7.90;99.90
1355;DHT22;671;48.972;9.276;2023-12-20T11:46:06;7.80;99.90
1355;DHT22;671;48.972;9.276;2023-12-20T11:48:36;7.80;99.90
1355;DHT22;671;48.972;9.276;2023-12-20T11:51:09;7.80;99.90
1355;DHT22;671;48.972;9.276;2023-12-20T11:53:36;7.80;99.90
1355;DHT22;671;48.972;9.276;2023-12-20T11:56:05;7.80;99.90
1355;DHT22;671;48.972;9.276;2023-12-20T11:58:33;7.80;99.90
1355;DHT22;671;48.972;9.276;2023-12-20T12:01:00;7.80;99.90
1355;DHT22;671;48.972;9.276;2023-12-20T12:03:28;7.80;99.90
1355;DHT22;671;48.972;9.276;2023-12-20T12:05:55;7.80;99.90
1355;DHT22;671;48.972;9.276;2023-12-20T12:08:21;7.80;99.90
1355;DHT22;671;48.972;9.276;2023-12-20T12:10:48;7.80;99.90
1355;DHT22;671;48.972;9.276;2023-12-20T12:13:14;7.90;99.90
1355;DHT22;671;48.972;9.276;2023-12-20T12:15:42;8.00;99.90
1355;DHT22;671;48.972;9.276;2023-12-20T12:18:09;8.00;99.90
1355;DHT22;671;48.972;9.276;2023-12-20T12:20:36;8.00;99.90
1355;DHT22;671;48.972;9.276;2023-12-20T12:23:04;8.10;99.90
1355;DHT22;671;48.972;9.276;2023-12-20T12:25:32;8.10;99.90
1355;DHT22;671;48.972;9.276;2023-12-20T12:27:59;8.10;99.90
1355;DHT22;671;48.972;9.276;2023-12-20T12:30:26;8.20;99.90
1355;DHT22;671;48.972;9.276;2023-12-20T12:32:53;8.20;99.90
1355;DHT22;671;48.972;9.276;2023-12-20T12:35:20;8.20;99.90
1355;DHT22;671;48.972;9.276;2023-12-20T12:37:47;8.20;99.90
1355;DHT22;671;48.972;9.276;2023-12-20T12:40:15;8.20;99.90
1355;DHT22;671;48.972;9.276;2023-12-20T12:42:43;8.20;99.90
1355;DHT22;671;48.972;9.276;2023-12-20T12:45:10;8.10;99.90
1355;DHT22;671;48.972;9.276;2023-12-20T12:47:40;8.10;99.90
1355;DHT22;671;48.972;9.276;2023-12-20T12:50:07;8.10;99.90
1355;DHT22;671;48.972;9.276;2023-12-20T12:52:33;8.20;99.90
1355;DHT22;671;48.972;9.276;2023-12-20T12:55:01;8.10;99.90
1355;DHT22;671;48.972;9.276;2023-12-20T12:57:28;8.10;99.90
1355;DHT22;671;48.972;9.276;2023-12-20T12:59:54;8.10;99.90
1355;DHT22;671;48.972;9.276;2023-12-20T13:02:21;7.90;99.90
1355;DHT22;671;48.972;9.276;2023-12-20T13:04:47;7.90;99.90
1355;DHT22;671;48.972;9.276;2023-12-20T13:07:13;7.90;99.90
1355;DHT22;671;48.972;9.276;2023-12-20T13:09:41;7.90;99.90
1355;DHT22;671;48.972;9.276;2023-12-20T13:12:08;7.90;99.90
1355;DHT22;671;48.972;9.276;2023-12-20T13:14:35;8.00;99.90
1355;DHT22;671;48.972;9.276;2023-12-20T13:17:03;7.90;99.90
1355;DHT22;671;48.972;9.276;2023-12-20T13:19:30;7.80;99.90
1355;DHT22;671;48.972;9.276;2023-12-20T13:21:57;7.80;99.90
1355;DHT22;671;48.972;9.276;2023-12-20T13:24:24;7.70;99.90
1355;DHT22;671;48.972;9.276;2023-12-20T13:26:51;7.70;99.90
1355;DHT22;671;48.972;9.276;2023-12-20T13:29:17;7.70;99.90
1355;DHT22;671;48.972;9.276;2023-12-20T13:31:44;7.60;99.90
1355;DHT22;671;48.972;9.276;2023-12-20T13:34:10;7.60;99.90
1355;DHT22;671;48.972;9.276;2023-12-20T13:36:37;7.60;99.90
1355;DHT22;671;48.972;9.276;2023-12-20T13:39:04;7.60;99.90
1355;DHT22;671;48.972;9.276;2023-12-20T13:41:31;7.60;99.90
1355;DHT22;671;48.972;9.276;2023-12-20T13:43:58;7.60;99.90
1355;DHT22;671;48.972;9.276;2023-12-20T13:46:24;7.60;99.90
1355;DHT22;671;48.972;9.276;2023-12-20T13:48:51;7.60;99.90
1355;DHT22;671;48.972;9.276;2023-12-20T13:51:17;7.50;99.90
1355;DHT22;671;48.972;9.276;2023-12-20T13:53:44;7.50;99.90
1355;DHT22;671;48.972;9.276;2023-12-20T13:56:10;7.50;99.90
1355;DHT22;671;48.972;9.276;2023-12-20T13:58:37;7.50;99.90
1355;DHT22;671;48.972;9.276;2023-12-20T14:01:03;7.50;99.90
1355;DHT22;671;48.972;9.276;2023-12-20T14:03:30;7.50;99.90
1355;DHT22;671;48.972;9.276;2023-12-20T14:05:57;7.50;99.90
1355;DHT22;671;48.972;9.276;2023-12-20T14:08:23;7.50;99.90
1355;DHT22;671;48.972;9.276;2023-12-20T14:10:50;7.40;99.90
1355;DHT22;671;48.972;9.276;2023-12-20T14:13:16;7.40;99.90
1355;DHT22;671;48.972;9.276;2023-12-20T14:15:43;7.40;99.90
1355;DHT22;671;48.972;9.276;2023-12-20T14:18:10;7.40;99.90
1355;DHT22;671;48.972;9.276;2023-12-20T14:20:36;7.30;99.90
1355;DHT22;671;48.972;9.276;2023-12-20T14:23:05;7.30;99.90
1355;DHT22;671;48.972;9.276;2023-12-20T14:25:32;7.30;99.90
1355;DHT22;671;48.972;9.276;2023-12-20T14:27:58;7.30;99.90
1355;DHT22;671;48.972;9.276;2023-12-20T14:30:25;7.20;99.90
1355;DHT22;671;48.972;9.276;2023-12-20T14:32:52;7.20;99.90
1355;DHT22;671;48.972;9.276;2023-12-20T14:35:18;7.20;99.90
1355;DHT22;671;48.972;9.276;2023-12-20T14:37:46;7.10;99.90
1355;DHT22;671;48.972;9.276;2023-12-20T14:40:12;7.10;99.90
1355;DHT22;671;48.972;9.276;2023-12-20T14:42:43;7.00;99.90
1355;DHT22;671;48.972;9.276;2023-12-20T14:45:10;7.00;99.90
1355;DHT22;671;48.972;9.276;2023-12-20T14:47:36;7.00;99.90
1355;DHT22;671;48.972;9.276;2023-12-20T14:50:04;6.90;99.90
1355;DHT22;671;48.972;9.276;2023-12-20T14:52:32;6.90;99.90
1355;DHT22;671;48.972;9.276;2023-12-20T14:55:00;6.80;99.90
1355;DHT22;671;48.972;9.276;2023-12-20T14:57:29;6.80;99.90
1355;DHT22;671;48.972;9.276;2023-12-20T14:59:58;6.80;99.90
1355;DHT22;671;48.972;9.276;2023-12-20T15:02:24;6.80;99.90
1355;DHT22;671;48.972;9.276;2023-12-20T15:04:51;6.70;99.90
1355;DHT22;671;48.972;9.276;2023-12-20T15:07:17;6.70;99.90
1355;DHT22;671;48.972;9.276;2023-12-20T15:09:44;6.70;99.90
1355;DHT22;671;48.972;9.276;2023-12-20T15:12:12;6.70;99.90
1355;DHT22;671;48.972;9.276;2023-12-20T15:14:39;6.70;99.90
1355;DHT22;671;48.972;9.276;2023-12-20T15:17:06;6.70;99.90
1355;DHT22;671;48.972;9.276;2023-12-20T15:19:33;6.70;99.90
1355;DHT22;671;48.972;9.276;2023-12-20T15:21:59;6.70;99.90
1355;DHT22;671;48.972;9.276;2023-12-20T15:24:26;6.70;99.90
1355;DHT22;671;48.972;9.276;2023-12-20T15:26:55;6.70;99.90
1355;DHT22;671;48.972;9.276;2023-12-20T15:29:22;6.70;99.90
1355;DHT22;671;48.972;9.276;2023-12-20T15:31:48;6.70;99.90
1355;DHT22;671;48.972;9.276;2023-12-20T15:34:15;6.60;99.90
1355;DHT22;671;48.972;9.276;2023-12-20T15:36:42;6.60;99.90
1355;DHT22;671;48.972;9.276;2023-12-20T15:39:09;6.60;99.90
1355;DHT22;671;48.972;9.276;2023-12-20T15:41:36;6.60;99.90
1355;DHT22;671;48.972;9.276;2023-12-20T15:44:02;6.50;99.90
1355;DHT22;671;48.972;9.276;2023-12-20T15:46:29;6.50;99.90
1355;DHT22;671;48.972;9.276;2023-12-20T15:48:55;6.50;99.90
1355;DHT22;671;48.972;9.276;2023-12-20T15:51:22;6.40;99.90
1355;DHT22;671;48.972;9.276;2023-12-20T15:53:49;6.40;99.90
1355;DHT22;671;48.972;9.276;2023-12-20T15:56:16;6.40;99.90
1355;DHT22;671;48.972;9.276;2023-12-20T15:58:44;6.40;99.90
1355;DHT22;671;48.972;9.276;2023-12-20T16:01:10;6.40;99.90
1355;DHT22;671;48.972;9.276;2023-12-20T16:03:37;6.30;99.90
1355;DHT22;671;48.972;9.276;2023-12-20T16:06:04;6.30;99.90
1355;DHT22;671;48.972;9.276;2023-12-20T16:08:30;6.40;99.90
1355;DHT22;671;48.972;9.276;2023-12-20T16:10:58;6.40;99.90
1355;DHT22;671;48.972;9.276;2023-12-20T16:13:25;6.40;99.90
1355;DHT22;671;48.972;9.276;2023-12-20T16:15:51;6.40;99.90
1355;DHT22;671;48.972;9.276;2023-12-20T16:18:18;6.40;99.90
1355;DHT22;671;48.972;9.276;2023-12-20T16:20:44;6.40;99.90
1355;DHT22;671;48.972;9.276;2023-12-20T16:23:11;6.40;99.90
1355;DHT22;671;48.972;9.276;2023-12-20T16:25:37;6.40;99.90
1355;DHT22;671;48.972;9.276;2023-12-20T16:28:05;6.50;99.90
1355;DHT22;671;48.972;9.276;2023-12-20T16:30:32;6.40;99.90
1355;DHT22;671;48.972;9.276;2023-12-20T16:32:58;6.40;99.90
1355;DHT22;671;48.972;9.276;2023-12-20T16:35:25;6.40;99.90